sensor_id;sensor_type;location;lat;lon;timestamp;pressure;altitude;pressure_sealevel;temperature;humidity
20003;BME280;10162;41.600;23.806;2023-11-19T00:01:13;94793.84;;;4.70;77.08
20003;BME280;10162;41.600;23.806;2023-11-19T00:08:56;94803.41;;;4.62;73.76
20003;BME280;10162;41.600;23.806;2023-11-19T00:12:05;94806.00;;;4.62;75.12
20003;BME280;10162;41.600;23.806;2023-11-19T00:18:53;94817.34;;;4.52;73.88
20003;BME280;10162;41.600;23.806;2023-11-19T00:21:28;94802.97;;;4.34;72.86
20003;BME280;10162;41.600;23.806;2023-11-19T00:28:00;94745.59;;;4.22;73.23
20003;BME280;10162;41.600;23.806;2023-11-19T00:30:41;94777.41;;;4.39;72.90
20003;BME280;10162;41.600;23.806;2023-11-19T00:37:18;94805.53;;;4.58;72.57
20003;BME280;10162;41.600;23.806;2023-11-19T00:44:30;94821.72;;;4.52;70.43
20003;BME280;10162;41.600;23.806;2023-11-19T00:50:27;94784.88;;;4.42;70.86
20003;BME280;10162;41.600;23.806;2023-11-19T00:52:59;94788.28;;;4.34;70.73
20003;BME280;10162;41.600;23.806;2023-11-19T00:59:16;94816.00;;;4.73;71.61
20003;BME280;10162;41.600;23.806;2023-11-19T01:13:37;94852.97;;;4.02;81.32
20003;BME280;10162;41.600;23.806;2023-11-19T01:16:26;94862.22;;;4.21;77.80
20003;BME280;10162;41.600;23.806;2023-11-19T01:22:01;94843.09;;;3.89;81.47
20003;BME280;10162;41.600;23.806;2023-11-19T01:24:37;94862.34;;;4.11;79.46
20003;BME280;10162;41.600;23.806;2023-11-19T01:31:18;94883.06;;;4.03;79.83
20003;BME280;10162;41.600;23.806;2023-11-19T01:34:27;94888.88;;;3.97;79.56
20003;BME280;10162;41.600;23.806;2023-11-19T01:37:03;94856.81;;;3.82;79.83
20003;BME280;10162;41.600;23.806;2023-11-19T01:39:29;94866.06;;;3.84;80.27
20003;BME280;10162;41.600;23.806;2023-11-19T01:41:56;94857.34;;;3.85;80.46
20003;BME280;10162;41.600;23.806;2023-11-19T01:44:30;94816.09;;;3.51;79.52
20003;BME280;10162;41.600;23.806;2023-11-19T01:46:58;94847.47;;;3.64;80.67
20003;BME280;10162;41.600;23.806;2023-11-19T01:49:27;94871.19;;;3.60;81.61
20003;BME280;10162;41.600;23.806;2023-11-19T01:51:54;94870.06;;;3.62;80.88
20003;BME280;10162;41.600;23.806;2023-11-19T02:06:28;94889.00;;;3.21;86.29
20003;BME280;10162;41.600;23.806;2023-11-19T02:09:54;94864.81;;;2.62;91.55
20003;BME280;10162;41.600;23.806;2023-11-19T02:12:37;94850.00;;;2.38;92.15
20003;BME280;10162;41.600;23.806;2023-11-19T02:15:31;94881.09;;;2.37;93.14
20003;BME280;10162;41.600;23.806;2023-11-19T02:18:23;94884.06;;;2.24;96.06
20003;BME280;10162;41.600;23.806;2023-11-19T02:20:52;94848.91;;;1.97;96.77
20003;BME280;10162;41.600;23.806;2023-11-19T02:23:45;94881.75;;;1.95;100.00
20003;BME280;10162;41.600;23.806;2023-11-19T02:26:39;94844.28;;;1.48;100.00
20003;BME280;10162;41.600;23.806;2023-11-19T02:29:09;94862.69;;;1.71;100.00
20003;BME280;10162;41.600;23.806;2023-11-19T02:31:57;94857.44;;;1.45;100.00
20003;BME280;10162;41.600;23.806;2023-11-19T02:35:18;94882.53;;;1.43;100.00
20003;BME280;10162;41.600;23.806;2023-11-19T02:37:40;94874.38;;;1.47;100.00
20003;BME280;10162;41.600;23.806;2023-11-19T02:40:17;94842.34;;;1.32;100.00
20003;BME280;10162;41.600;23.806;2023-11-19T02:42:50;94844.06;;;0.96;100.00
20003;BME280;10162;41.600;23.806;2023-11-19T02:48:30;94894.28;;;1.28;100.00
20003;BME280;10162;41.600;23.806;2023-11-19T02:51:11;94878.88;;;1.18;100.00
20003;BME280;10162;41.600;23.806;2023-11-19T02:57:18;94815.72;;;1.23;100.00
20003;BME280;10162;41.600;23.806;2023-11-19T02:59:52;94862.91;;;0.87;100.00
20003;BME280;10162;41.600;23.806;2023-11-19T03:02:24;94867.50;;;0.47;100.00
20003;BME280;10162;41.600;23.806;2023-11-19T03:08:17;94866.47;;;0.39;100.00
20003;BME280;10162;41.600;23.806;2023-11-19T03:11:11;94890.69;;;1.38;100.00
20003;BME280;10162;41.600;23.806;2023-11-19T03:14:26;94843.69;;;0.54;100.00
20003;BME280;10162;41.600;23.806;2023-11-19T03:16:52;94846.38;;;0.53;100.00
20003;BME280;10162;41.600;23.806;2023-11-19T03:19:18;94865.44;;;0.23;100.00
20003;BME280;10162;41.600;23.806;2023-11-19T03:21:44;94858.66;;;0.68;100.00
20003;BME280;10162;41.600;23.806;2023-11-19T03:27:23;94887.72;;;0.32;100.00
20003;BME280;10162;41.600;23.806;2023-11-19T03:29:48;94899.31;;;0.55;100.00
20003;BME280;10162;41.600;23.806;2023-11-19T03:32:14;94850.84;;;0.04;100.00
20003;BME280;10162;41.600;23.806;2023-11-19T03:38:35;94879.59;;;0.36;100.00
20003;BME280;10162;41.600;23.806;2023-11-19T03:41:10;94841.22;;;0.16;100.00
20003;BME280;10162;41.600;23.806;2023-11-19T03:47:32;94895.75;;;0.66;100.00
20003;BME280;10162;41.600;23.806;2023-11-19T03:57:13;94914.06;;;0.53;100.00
20003;BME280;10162;41.600;23.806;2023-11-19T03:59:45;94882.25;;;0.54;100.00
20003;BME280;10162;41.600;23.806;2023-11-19T04:02:18;94905.09;;;0.67;100.00
20003;BME280;10162;41.600;23.806;2023-11-19T04:08:43;94880.63;;;0.53;100.00
20003;BME280;10162;41.600;23.806;2023-11-19T04:11:15;94903.06;;;0.70;100.00
20003;BME280;10162;41.600;23.806;2023-11-19T04:17:35;94888.56;;;0.04;100.00
20003;BME280;10162;41.600;23.806;2023-11-19T04:20:33;94901.66;;;0.29;100.00
20003;BME280;10162;41.600;23.806;2023-11-19T04:23:57;94907.16;;;1.00;100.00
20003;BME280;10162;41.600;23.806;2023-11-19T04:27:05;94893.59;;;-0.14;100.00
20003;BME280;10162;41.600;23.806;2023-11-19T04:29:51;94931.00;;;0.46;100.00
20003;BME280;10162;41.600;23.806;2023-11-19T04:33:06;94931.16;;;0.45;100.00
20003;BME280;10162;41.600;23.806;2023-11-19T04:35:49;94926.44;;;-0.18;100.00
20003;BME280;10162;41.600;23.806;2023-11-19T04:38:14;94893.97;;;0.00;100.00
20003;BME280;10162;41.600;23.806;2023-11-19T04:40:40;94917.97;;;0.67;100.00
20003;BME280;10162;41.600;23.806;2023-11-19T04:43:15;94914.91;;;0.25;100.00
20003;BME280;10162;41.600;23.806;2023-11-19T04:46:26;94896.53;;;-0.28;100.00
20003;BME280;10162;41.600;23.806;2023-11-19T04:49:04;94926.03;;;0.16;100.00
20003;BME280;10162;41.600;23.806;2023-11-19T04:51:49;94920.06;;;0.25;100.00
20003;BME280;10162;41.600;23.806;2023-11-19T04:58:16;94926.69;;;-0.11;100.00
20003;BME280;10162;41.600;23.806;2023-11-19T05:00:46;94937.53;;;-0.08;100.00
20003;BME280;10162;41.600;23.806;2023-11-19T05:07:06;94930.50;;;0.14;100.00
20003;BME280;10162;41.600;23.806;2023-11-19T05:09:56;94967.56;;;0.11;100.00
20003;BME280;10162;41.600;23.806;2023-11-19T05:12:48;94966.22;;;0.17;100.00
20003;BME280;10162;41.600;23.806;2023-11-19T05:15:46;94964.31;;;0.09;100.00
20003;BME280;10162;41.600;23.806;2023-11-19T05:18:12;94933.34;;;0.01;100.00
20003;BME280;10162;41.600;23.806;2023-11-19T05:20:37;94929.00;;;-0.08;100.00
20003;BME280;10162;41.600;23.806;2023-11-19T05:26:57;94952.63;;;0.72;100.00
20003;BME280;10162;41.600;23.806;2023-11-19T05:29:24;94942.44;;;1.17;100.00
20003;BME280;10162;41.600;23.806;2023-11-19T05:31:59;94941.88;;;0.87;100.00
20003;BME280;10162;41.600;23.806;2023-11-19T05:38:22;94964.53;;;0.64;100.00
20003;BME280;10162;41.600;23.806;2023-11-19T05:40:53;94952.06;;;0.69;100.00
20003;BME280;10162;41.600;23.806;2023-11-19T05:47:13;94976.28;;;1.59;100.00
20003;BME280;10162;41.600;23.806;2023-11-19T05:49:39;94941.75;;;1.43;100.00
20003;BME280;10162;41.600;23.806;2023-11-19T06:04:03;94965.72;;;2.16;100.00
20003;BME280;10162;41.600;23.806;2023-11-19T06:07:26;94951.06;;;2.77;100.00
20003;BME280;10162;41.600;23.806;2023-11-19T06:10:06;94988.91;;;3.20;100.00
20003;BME280;10162;41.600;23.806;2023-11-19T06:12:35;94932.94;;;2.69;100.00
20003;BME280;10162;41.600;23.806;2023-11-19T06:15:07;94910.91;;;2.83;100.00
20003;BME280;10162;41.600;23.806;2023-11-19T06:17:37;94954.72;;;3.26;100.00
20003;BME280;10162;41.600;23.806;2023-11-19T06:20:04;94945.19;;;3.27;100.00
20003;BME280;10162;41.600;23.806;2023-11-19T06:22:40;94995.00;;;3.79;100.00
20003;BME280;10162;41.600;23.806;2023-11-19T06:25:09;94975.13;;;3.88;100.00
20003;BME280;10162;41.600;23.806;2023-11-19T06:27:37;94986.81;;;3.92;100.00
20003;BME280;10162;41.600;23.806;2023-11-19T06:30:10;94964.78;;;3.80;100.00
20003;BME280;10162;41.600;23.806;2023-11-19T06:32:51;94978.16;;;4.25;100.00
20003;BME280;10162;41.600;23.806;2023-11-19T06:35:19;94991.69;;;4.11;100.00
20003;BME280;10162;41.600;23.806;2023-11-19T06:37:54;94998.22;;;4.31;100.00
20003;BME280;10162;41.600;23.806;2023-11-19T06:40:39;94985.13;;;4.33;100.00
20003;BME280;10162;41.600;23.806;2023-11-19T06:43:10;95014.41;;;4.57;100.00
20003;BME280;10162;41.600;23.806;2023-11-19T06:45:39;94966.66;;;4.28;97.88
20003;BME280;10162;41.600;23.806;2023-11-19T06:48:17;94997.41;;;4.63;97.63
20003;BME280;10162;41.600;23.806;2023-11-19T06:50:52;94993.69;;;4.90;99.09
20003;BME280;10162;41.600;23.806;2023-11-19T06:53:23;95015.69;;;5.02;98.96
20003;BME280;10162;41.600;23.806;2023-11-19T06:56:01;95012.00;;;4.72;95.20
20003;BME280;10162;41.600;23.806;2023-11-19T06:58:44;94985.72;;;5.08;97.72
20003;BME280;10162;41.600;23.806;2023-11-19T07:01:14;95017.63;;;5.24;97.47
20003;BME280;10162;41.600;23.806;2023-11-19T07:03:51;95030.38;;;5.42;97.66
20003;BME280;10162;41.600;23.806;2023-11-19T07:06:23;94999.19;;;5.74;92.36
20003;BME280;10162;41.600;23.806;2023-11-19T07:09:44;95019.91;;;5.91;87.32
20003;BME280;10162;41.600;23.806;2023-11-19T07:12:08;95018.78;;;6.16;84.37
20003;BME280;10162;41.600;23.806;2023-11-19T07:14:43;95021.00;;;5.96;81.28
20003;BME280;10162;41.600;23.806;2023-11-19T07:17:11;95028.13;;;6.33;81.60
20003;BME280;10162;41.600;23.806;2023-11-19T07:20:00;95035.72;;;6.66;79.18
20003;BME280;10162;41.600;23.806;2023-11-19T07:22:26;95031.44;;;6.73;78.82
20003;BME280;10162;41.600;23.806;2023-11-19T07:25:04;95028.63;;;6.29;75.97
20003;BME280;10162;41.600;23.806;2023-11-19T07:27:41;95044.09;;;6.76;77.50
20003;BME280;10162;41.600;23.806;2023-11-19T07:30:07;95028.13;;;6.56;74.00
20003;BME280;10162;41.600;23.806;2023-11-19T07:32:34;95052.75;;;6.91;77.42
20003;BME280;10162;41.600;23.806;2023-11-19T07:35:03;95057.41;;;6.95;72.85
20003;BME280;10162;41.600;23.806;2023-11-19T07:37:39;95056.38;;;7.04;72.44
20003;BME280;10162;41.600;23.806;2023-11-19T07:40:05;95063.88;;;6.23;69.95
20003;BME280;10162;41.600;23.806;2023-11-19T07:42:31;95086.41;;;6.84;71.79
20003;BME280;10162;41.600;23.806;2023-11-19T07:44:58;95060.47;;;6.53;72.45
20003;BME280;10162;41.600;23.806;2023-11-19T07:47:24;95059.56;;;6.92;71.47
20003;BME280;10162;41.600;23.806;2023-11-19T07:49:51;95020.81;;;6.59;71.84
20003;BME280;10162;41.600;23.806;2023-11-19T07:52:17;95082.09;;;7.37;73.93
20003;BME280;10162;41.600;23.806;2023-11-19T07:54:44;95048.84;;;7.32;73.04
20003;BME280;10162;41.600;23.806;2023-11-19T07:57:10;95038.19;;;7.04;68.17
20003;BME280;10162;41.600;23.806;2023-11-19T07:59:37;95040.91;;;6.43;67.70
20003;BME280;10162;41.600;23.806;2023-11-19T08:02:03;95072.53;;;7.52;69.61
20003;BME280;10162;41.600;23.806;2023-11-19T08:04:32;95067.31;;;7.52;66.76
20003;BME280;10162;41.600;23.806;2023-11-19T08:06:58;95070.13;;;7.51;70.17
20003;BME280;10162;41.600;23.806;2023-11-19T08:09:23;95048.41;;;7.58;66.81
20003;BME280;10162;41.600;23.806;2023-11-19T08:11:49;95069.06;;;8.04;65.98
20003;BME280;10162;41.600;23.806;2023-11-19T08:14:16;95034.53;;;7.51;62.95
20003;BME280;10162;41.600;23.806;2023-11-19T08:16:41;95063.50;;;7.77;65.18
20003;BME280;10162;41.600;23.806;2023-11-19T08:19:07;95082.34;;;8.23;65.26
20003;BME280;10162;41.600;23.806;2023-11-19T08:21:34;95072.88;;;8.31;64.81
20003;BME280;10162;41.600;23.806;2023-11-19T08:24:14;95097.41;;;8.57;63.88
20003;BME280;10162;41.600;23.806;2023-11-19T08:26:40;95084.06;;;8.02;63.22
20003;BME280;10162;41.600;23.806;2023-11-19T08:29:07;95075.63;;;8.00;63.44
20003;BME280;10162;41.600;23.806;2023-11-19T08:31:35;95078.84;;;8.16;63.00
20003;BME280;10162;41.600;23.806;2023-11-19T08:34:03;95092.31;;;8.49;60.79
20003;BME280;10162;41.600;23.806;2023-11-19T08:36:31;95097.19;;;8.74;60.04
20003;BME280;10162;41.600;23.806;2023-11-19T08:38:57;95068.59;;;8.44;60.65
20003;BME280;10162;41.600;23.806;2023-11-19T08:41:22;95068.25;;;8.33;61.38
20003;BME280;10162;41.600;23.806;2023-11-19T08:43:53;95077.09;;;8.67;65.68
20003;BME280;10162;41.600;23.806;2023-11-19T08:46:19;95091.34;;;8.71;62.27
20003;BME280;10162;41.600;23.806;2023-11-19T08:48:45;95075.75;;;8.93;59.84
20003;BME280;10162;41.600;23.806;2023-11-19T08:51:12;95077.56;;;8.92;59.74
20003;BME280;10162;41.600;23.806;2023-11-19T08:53:39;95092.25;;;8.79;59.11
20003;BME280;10162;41.600;23.806;2023-11-19T08:56:07;95093.84;;;8.29;60.68
20003;BME280;10162;41.600;23.806;2023-11-19T08:58:33;95082.13;;;9.11;60.83
20003;BME280;10162;41.600;23.806;2023-11-19T09:00:59;95062.53;;;8.37;58.31
20003;BME280;10162;41.600;23.806;2023-11-19T09:03:39;95096.19;;;9.32;59.84
20003;BME280;10162;41.600;23.806;2023-11-19T09:06:08;95064.34;;;8.94;57.51
20003;BME280;10162;41.600;23.806;2023-11-19T09:08:34;95050.72;;;9.20;57.17
20003;BME280;10162;41.600;23.806;2023-11-19T09:11:00;95043.72;;;8.99;57.79
20003;BME280;10162;41.600;23.806;2023-11-19T09:13:26;95057.31;;;9.16;60.56
20003;BME280;10162;41.600;23.806;2023-11-19T09:15:51;95050.63;;;9.34;58.55
20003;BME280;10162;41.600;23.806;2023-11-19T09:18:17;95058.66;;;8.69;57.31
20003;BME280;10162;41.600;23.806;2023-11-19T09:20:44;95049.56;;;8.44;58.38
20003;BME280;10162;41.600;23.806;2023-11-19T09:23:10;95091.31;;;9.50;58.19
20003;BME280;10162;41.600;23.806;2023-11-19T09:25:38;95040.22;;;9.13;58.51
20003;BME280;10162;41.600;23.806;2023-11-19T09:28:04;95044.97;;;9.03;58.52
20003;BME280;10162;41.600;23.806;2023-11-19T09:30:30;95053.03;;;8.65;56.67
20003;BME280;10162;41.600;23.806;2023-11-19T09:33:01;95086.91;;;9.50;57.62
20003;BME280;10162;41.600;23.806;2023-11-19T09:39:05;95053.25;;;9.90;54.35
20003;BME280;10162;41.600;23.806;2023-11-19T09:41:41;95052.81;;;9.31;57.01
20003;BME280;10162;41.600;23.806;2023-11-19T09:44:33;95057.91;;;9.67;55.53
20003;BME280;10162;41.600;23.806;2023-11-19T09:46:59;95066.69;;;9.59;57.18
20003;BME280;10162;41.600;23.806;2023-11-19T09:49:26;95059.91;;;9.65;54.76
20003;BME280;10162;41.600;23.806;2023-11-19T09:51:53;95029.81;;;9.69;54.61
20003;BME280;10162;41.600;23.806;2023-11-19T09:54:29;95052.88;;;9.65;55.50
20003;BME280;10162;41.600;23.806;2023-11-19T09:56:59;95035.84;;;9.69;57.42
20003;BME280;10162;41.600;23.806;2023-11-19T09:59:29;95041.13;;;9.48;54.98
20003;BME280;10162;41.600;23.806;2023-11-19T10:01:56;95089.84;;;10.31;55.85
20003;BME280;10162;41.600;23.806;2023-11-19T10:04:33;95064.72;;;9.61;56.58
20003;BME280;10162;41.600;23.806;2023-11-19T10:07:01;95065.81;;;9.80;56.46
20003;BME280;10162;41.600;23.806;2023-11-19T10:09:26;95093.53;;;9.81;56.56
20003;BME280;10162;41.600;23.806;2023-11-19T10:11:55;95055.03;;;10.17;56.65
20003;BME280;10162;41.600;23.806;2023-11-19T10:14:34;95064.78;;;10.02;54.61
20003;BME280;10162;41.600;23.806;2023-11-19T10:17:03;95040.75;;;10.20;55.97
20003;BME280;10162;41.600;23.806;2023-11-19T10:19:31;95037.16;;;9.86;54.16
20003;BME280;10162;41.600;23.806;2023-11-19T10:22:04;95037.09;;;10.08;54.63
20003;BME280;10162;41.600;23.806;2023-11-19T10:24:51;95035.84;;;10.45;54.47
20003;BME280;10162;41.600;23.806;2023-11-19T10:27:17;95013.31;;;9.96;54.02
20003;BME280;10162;41.600;23.806;2023-11-19T10:29:47;95039.97;;;10.19;54.29
20003;BME280;10162;41.600;23.806;2023-11-19T10:32:13;95038.78;;;10.22;54.29
20003;BME280;10162;41.600;23.806;2023-11-19T10:34:42;95035.38;;;10.28;51.90
20003;BME280;10162;41.600;23.806;2023-11-19T10:37:09;95036.81;;;10.30;52.74
20003;BME280;10162;41.600;23.806;2023-11-19T10:39:52;95032.22;;;10.05;51.79
20003;BME280;10162;41.600;23.806;2023-11-19T10:42:21;95032.38;;;9.90;52.95
20003;BME280;10162;41.600;23.806;2023-11-19T10:44:47;95026.16;;;10.39;52.64
20003;BME280;10162;41.600;23.806;2023-11-19T10:47:14;95007.16;;;10.64;53.91
20003;BME280;10162;41.600;23.806;2023-11-19T10:49:44;95016.41;;;10.67;53.26
20003;BME280;10162;41.600;23.806;2023-11-19T10:52:11;95004.63;;;10.23;52.54
20003;BME280;10162;41.600;23.806;2023-11-19T10:54:44;95013.31;;;10.44;52.82
20003;BME280;10162;41.600;23.806;2023-11-19T10:57:13;95016.16;;;10.49;51.09
20003;BME280;10162;41.600;23.806;2023-11-19T10:59:46;95002.25;;;10.35;52.23
20003;BME280;10162;41.600;23.806;2023-11-19T11:02:16;95003.66;;;10.38;51.86
20003;BME280;10162;41.600;23.806;2023-11-19T11:04:47;95002.28;;;10.42;52.47
20003;BME280;10162;41.600;23.806;2023-11-19T11:07:14;95011.47;;;10.31;51.29
20003;BME280;10162;41.600;23.806;2023-11-19T11:09:41;95009.56;;;10.66;52.03
20003;BME280;10162;41.600;23.806;2023-11-19T11:12:09;94996.72;;;10.77;51.75
20003;BME280;10162;41.600;23.806;2023-11-19T11:14:37;94983.19;;;10.41;52.38
20003;BME280;10162;41.600;23.806;2023-11-19T11:17:03;94985.81;;;10.48;51.01
20003;BME280;10162;41.600;23.806;2023-11-19T11:19:34;94992.69;;;10.14;52.16
20003;BME280;10162;41.600;23.806;2023-11-19T11:22:02;94990.63;;;10.51;52.42
20003;BME280;10162;41.600;23.806;2023-11-19T11:24:44;94982.75;;;10.38;50.72
20003;BME280;10162;41.600;23.806;2023-11-19T11:38:01;94973.00;;;10.92;52.24
20003;BME280;10162;41.600;23.806;2023-11-19T11:40:29;94964.94;;;10.94;51.93
20003;BME280;10162;41.600;23.806;2023-11-19T11:42:55;94958.94;;;10.87;52.06
20003;BME280;10162;41.600;23.806;2023-11-19T11:45:35;94952.69;;;10.81;50.98
20003;BME280;10162;41.600;23.806;2023-11-19T11:50:35;94949.66;;;11.30;50.18
20003;BME280;10162;41.600;23.806;2023-11-19T11:58:17;94944.22;;;11.05;49.84
20003;BME280;10162;41.600;23.806;2023-11-19T12:00:43;94943.44;;;11.05;50.41
20003;BME280;10162;41.600;23.806;2023-11-19T12:03:11;94950.25;;;11.12;50.48
20003;BME280;10162;41.600;23.806;2023-11-19T12:05:47;94951.03;;;10.67;48.73
20003;BME280;10162;41.600;23.806;2023-11-19T12:08:14;94939.59;;;11.21;50.30
20003;BME280;10162;41.600;23.806;2023-11-19T12:10:51;94944.03;;;11.27;49.42
20003;BME280;10162;41.600;23.806;2023-11-19T12:13:17;94933.75;;;11.25;48.43
20003;BME280;10162;41.600;23.806;2023-11-19T12:18:26;94932.94;;;11.38;50.74
20003;BME280;10162;41.600;23.806;2023-11-19T12:20:52;94939.41;;;11.09;49.08
20003;BME280;10162;41.600;23.806;2023-11-19T12:23:18;94939.81;;;10.93;48.85
20003;BME280;10162;41.600;23.806;2023-11-19T12:25:44;94935.56;;;11.11;50.31
20003;BME280;10162;41.600;23.806;2023-11-19T12:28:15;94924.91;;;11.26;48.47
20003;BME280;10162;41.600;23.806;2023-11-19T12:30:45;94926.47;;;11.34;49.03
20003;BME280;10162;41.600;23.806;2023-11-19T12:33:16;94945.94;;;11.84;47.78
20003;BME280;10162;41.600;23.806;2023-11-19T12:35:45;94939.59;;;10.81;47.90
20003;BME280;10162;41.600;23.806;2023-11-19T12:38:21;94945.41;;;11.29;48.59
20003;BME280;10162;41.600;23.806;2023-11-19T12:40:47;94947.84;;;11.24;47.79
20003;BME280;10162;41.600;23.806;2023-11-19T12:43:22;94936.94;;;11.47;48.76
20003;BME280;10162;41.600;23.806;2023-11-19T12:45:48;94936.78;;;10.83;49.68
20003;BME280;10162;41.600;23.806;2023-11-19T12:48:14;94927.72;;;10.72;48.95
20003;BME280;10162;41.600;23.806;2023-11-19T12:50:52;94938.78;;;11.00;49.38
20003;BME280;10162;41.600;23.806;2023-11-19T12:53:29;94930.69;;;11.48;51.68
20003;BME280;10162;41.600;23.806;2023-11-19T12:55:55;94935.38;;;11.06;48.75
20003;BME280;10162;41.600;23.806;2023-11-19T12:58:35;94944.41;;;11.43;49.90
20003;BME280;10162;41.600;23.806;2023-11-19T13:01:03;94938.34;;;11.49;48.98
20003;BME280;10162;41.600;23.806;2023-11-19T13:07:24;94928.09;;;11.41;48.20
20003;BME280;10162;41.600;23.806;2023-11-19T13:10:01;94923.22;;;11.51;47.28
20003;BME280;10162;41.600;23.806;2023-11-19T13:12:28;94925.19;;;11.89;46.48
20003;BME280;10162;41.600;23.806;2023-11-19T13:18:16;94920.78;;;11.56;46.47
20003;BME280;10162;41.600;23.806;2023-11-19T13:20:42;94900.63;;;11.64;45.89
20003;BME280;10162;41.600;23.806;2023-11-19T13:23:32;94919.28;;;11.16;45.38
20003;BME280;10162;41.600;23.806;2023-11-19T13:25:58;94909.91;;;11.66;47.14
20003;BME280;10162;41.600;23.806;2023-11-19T13:28:24;94916.19;;;11.52;46.32
20003;BME280;10162;41.600;23.806;2023-11-19T13:30:51;94895.81;;;11.60;46.22
20003;BME280;10162;41.600;23.806;2023-11-19T13:37:17;94925.31;;;10.84;45.61
20003;BME280;10162;41.600;23.806;2023-11-19T13:39:45;94904.59;;;10.89;46.20
20003;BME280;10162;41.600;23.806;2023-11-19T13:42:10;94906.38;;;11.21;45.62
20003;BME280;10162;41.600;23.806;2023-11-19T13:47:53;94921.28;;;11.27;45.97
20003;BME280;10162;41.600;23.806;2023-11-19T13:50:18;94907.22;;;11.15;46.65
20003;BME280;10162;41.600;23.806;2023-11-19T13:52:45;94914.44;;;11.00;46.29
20003;BME280;10162;41.600;23.806;2023-11-19T13:55:42;94918.91;;;10.93;46.97
20003;BME280;10162;41.600;23.806;2023-11-19T13:58:09;94905.81;;;10.93;46.62
20003;BME280;10162;41.600;23.806;2023-11-19T14:00:35;94922.28;;;11.19;46.60
20003;BME280;10162;41.600;23.806;2023-11-19T14:03:02;94920.28;;;11.22;46.18
20003;BME280;10162;41.600;23.806;2023-11-19T14:09:22;94925.69;;;10.54;46.87
20003;BME280;10162;41.600;23.806;2023-11-19T14:11:48;94904.13;;;10.19;48.63
20003;BME280;10162;41.600;23.806;2023-11-19T14:18:10;94937.91;;;10.27;48.01
20003;BME280;10162;41.600;23.806;2023-11-19T14:24:04;94957.75;;;9.68;49.31
20003;BME280;10162;41.600;23.806;2023-11-19T14:26:34;94943.13;;;9.39;49.83
20003;BME280;10162;41.600;23.806;2023-11-19T14:29:00;94941.88;;;9.07;52.73
20003;BME280;10162;41.600;23.806;2023-11-19T14:31:30;94956.13;;;8.83;52.85
20003;BME280;10162;41.600;23.806;2023-11-19T14:33:56;94957.84;;;8.48;54.31
20003;BME280;10162;41.600;23.806;2023-11-19T14:36:21;94951.78;;;7.91;58.29
20003;BME280;10162;41.600;23.806;2023-11-19T14:38:47;94954.69;;;7.66;61.22
20003;BME280;10162;41.600;23.806;2023-11-19T14:41:13;94956.75;;;7.56;64.59
20003;BME280;10162;41.600;23.806;2023-11-19T14:43:39;94975.16;;;7.40;63.71
20003;BME280;10162;41.600;23.806;2023-11-19T14:46:05;94962.00;;;7.19;65.25
20003;BME280;10162;41.600;23.806;2023-11-19T14:48:32;94970.34;;;6.99;70.62
20003;BME280;10162;41.600;23.806;2023-11-19T14:51:07;94997.75;;;6.64;73.21
20003;BME280;10162;41.600;23.806;2023-11-19T14:53:42;94949.91;;;6.59;72.08
20003;BME280;10162;41.600;23.806;2023-11-19T14:56:15;94980.97;;;6.67;77.57
20003;BME280;10162;41.600;23.806;2023-11-19T15:02:13;94983.34;;;6.08;84.88
20003;BME280;10162;41.600;23.806;2023-11-19T15:08:10;94989.56;;;5.83;86.99
20003;BME280;10162;41.600;23.806;2023-11-19T15:10:55;95013.41;;;5.87;87.64
20003;BME280;10162;41.600;23.806;2023-11-19T15:17:07;95003.84;;;5.32;89.96
20003;BME280;10162;41.600;23.806;2023-11-19T15:19:36;94991.88;;;5.23;92.29
20003;BME280;10162;41.600;23.806;2023-11-19T15:22:06;95020.31;;;5.55;87.63
20003;BME280;10162;41.600;23.806;2023-11-19T15:24:49;94972.97;;;5.06;91.31
20003;BME280;10162;41.600;23.806;2023-11-19T15:27:15;94994.31;;;5.08;90.90
20003;BME280;10162;41.600;23.806;2023-11-19T15:29:43;95031.09;;;4.87;95.59
20003;BME280;10162;41.600;23.806;2023-11-19T15:32:11;95044.84;;;4.96;95.10
20003;BME280;10162;41.600;23.806;2023-11-19T15:38:31;95017.97;;;4.56;96.87
20003;BME280;10162;41.600;23.806;2023-11-19T15:41:40;95004.28;;;4.06;98.98
20003;BME280;10162;41.600;23.806;2023-11-19T15:48:12;95110.72;;;4.85;95.72
20003;BME280;10162;41.600;23.806;2023-11-19T15:50:42;95068.50;;;4.93;93.98
20003;BME280;10162;41.600;23.806;2023-11-19T15:53:36;95094.41;;;4.93;93.36
20003;BME280;10162;41.600;23.806;2023-11-19T15:56:16;95076.75;;;4.80;91.54
20003;BME280;10162;41.600;23.806;2023-11-19T15:58:47;95040.66;;;4.87;91.01
20003;BME280;10162;41.600;23.806;2023-11-19T16:01:16;95037.91;;;4.88;89.26
20003;BME280;10162;41.600;23.806;2023-11-19T16:04:03;95051.31;;;5.24;87.99
20003;BME280;10162;41.600;23.806;2023-11-19T16:06:29;95036.09;;;4.81;90.87
20003;BME280;10162;41.600;23.806;2023-11-19T16:08:58;95048.06;;;4.90;86.31
20003;BME280;10162;41.600;23.806;2023-11-19T16:11:27;95074.13;;;5.45;78.91
20003;BME280;10162;41.600;23.806;2023-11-19T16:17:47;95036.25;;;5.28;88.65
20003;BME280;10162;41.600;23.806;2023-11-19T16:20:15;95014.56;;;4.32;91.92
20003;BME280;10162;41.600;23.806;2023-11-19T16:22:41;95057.59;;;4.33;97.32
20003;BME280;10162;41.600;23.806;2023-11-19T16:25:34;95039.63;;;4.31;100.00
20003;BME280;10162;41.600;23.806;2023-11-19T16:28:06;95044.59;;;3.74;100.00
20003;BME280;10162;41.600;23.806;2023-11-19T16:30:35;95039.44;;;3.41;100.00
20003;BME280;10162;41.600;23.806;2023-11-19T16:33:01;95064.06;;;3.87;99.89
20003;BME280;10162;41.600;23.806;2023-11-19T16:35:29;95064.00;;;4.21;100.00
20003;BME280;10162;41.600;23.806;2023-11-19T16:38:01;95052.47;;;4.07;99.51
20003;BME280;10162;41.600;23.806;2023-11-19T16:40:28;95026.31;;;3.34;100.00
20003;BME280;10162;41.600;23.806;2023-11-19T16:42:54;95045.00;;;3.28;100.00
20003;BME280;10162;41.600;23.806;2023-11-19T16:45:29;95074.56;;;3.33;100.00